Time;durP1;ratioP1;P1;durP2;ratioP2;P2;SDS_P1;SDS_P2;PMS_P1;PMS_P2;Temp;Humidity;BMP_temperature;BMP_pressure;BME280_temperature;BME280_humidity;BME280_pressure;Samples;Min_cycle;Max_cycle;Signal;HPM_P1;HPM_P2
2023/12/29 10:18:53;;;;;;;;;33.75;33.50;;;;;;;;5126160;27;13359;-73
2023/12/29 10:21:29;;;;;;;;;32.75;29.25;;;;;;;;5107780;28;11455;-73
2023/12/29 10:24:09;;;;;;;;;72.33;58.33;;;;;;;;5106793;28;11548;-73
2023/12/29 10:26:34;;;;;;;;;35.50;32.25;;;;;;;;5087425;28;8787;-70
2023/12/29 10:28:59;;;;;;;;;31.75;29.00;;;;;;;;5086967;28;12320;-70
2023/12/29 10:31:25;;;;;;;;;27.00;27.00;;;;;;;;5091193;28;8802;-69
2023/12/29 10:33:51;;;;;;;;;29.75;28.75;;;;;;;;5107481;28;8827;-69
2023/12/29 10:36:16;;;;;;;;;34.25;29.75;;;;;;;;5107328;28;8781;-69
2023/12/29 10:38:42;;;;;;;;;35.75;30.00;;;;;;;;5106827;28;11532;-69
2023/12/29 10:41:12;;;;;;;;;26.25;24.50;;;;;;;;5088941;28;9712;-70
2023/12/29 10:43:37;;;;;;;;;29.00;26.75;;;;;;;;5089544;28;8849;-69
2023/12/29 10:46:07;;;;;;;;;33.50;28.25;;;;;;;;5106586;28;11457;-69
2023/12/29 10:48:32;;;;;;;;;26.25;24.75;;;;;;;;5040455;28;10264;-71
2023/12/29 10:50:58;;;;;;;;;27.25;26.75;;;;;;;;5015170;28;11559;-69
2023/12/29 10:53:23;;;;;;;;;22.50;21.00;;;;;;;;5005078;28;8808;-69
2023/12/29 10:55:48;;;;;;;;;26.00;23.75;;;;;;;;5006387;28;8820;-69
2023/12/29 10:58:15;;;;;;;;;29.00;22.75;;;;;;;;4988703;28;10345;-69
2023/12/29 11:00:41;;;;;;;;;22.75;20.75;;;;;;;;5035697;28;9549;-69
2023/12/29 11:03:07;;;;;;;;;28.25;26.75;;;;;;;;5045980;28;11546;-68
2023/12/29 11:05:33;;;;;;;;;34.25;29.00;;;;;;;;5045911;28;8815;-67
2023/12/29 11:07:59;;;;;;;;;34.00;30.25;;;;;;;;5045290;28;11560;-68
2023/12/29 11:10:25;;;;;;;;;37.00;33.75;;;;;;;;5042614;28;12348;-69
2023/12/29 11:12:51;;;;;;;;;34.00;32.75;;;;;;;;5045797;28;8804;-70
2023/12/29 11:15:17;;;;;;;;;58.00;46.50;;;;;;;;5044393;28;11566;-68
2023/12/29 11:18:01;;;;;;;;;61.00;48.50;;;;;;;;5043985;28;11617;-69
2023/12/29 11:20:26;;;;;;;;;43.25;38.25;;;;;;;;5046092;28;8797;-69
2023/12/29 11:22:51;;;;;;;;;41.50;37.00;;;;;;;;5041342;28;11560;-71
2023/12/29 11:25:17;;;;;;;;;46.25;38.25;;;;;;;;5045533;28;8791;-70
2023/12/29 11:27:43;;;;;;;;;36.25;29.25;;;;;;;;5045441;28;8805;-70
2023/12/29 11:30:11;;;;;;;;;55.50;44.50;;;;;;;;5031397;28;8801;-70
2023/12/29 11:32:43;;;;;;;;;61.75;50.75;;;;;;;;5032267;28;8878;-69
2023/12/29 11:35:18;;;;;;;;;41.00;37.25;;;;;;;;5032702;28;11601;-69
2023/12/29 11:37:58;;;;;;;;;48.00;39.50;;;;;;;;5032605;28;11558;-69
2023/12/29 11:40:30;;;;;;;;;47.50;38.50;;;;;;;;5032237;28;12346;-70
2023/12/29 11:42:57;;;;;;;;;42.25;36.25;;;;;;;;5032074;28;11552;-69
2023/12/29 11:45:24;;;;;;;;;43.25;37.00;;;;;;;;5031868;28;11632;-69
2023/12/29 11:47:53;;;;;;;;;38.50;36.75;;;;;;;;5027170;28;11578;-71
2023/12/29 11:50:27;;;;;;;;;38.00;34.00;;;;;;;;5024536;28;11618;-71
2023/12/29 11:52:52;;;;;;;;;42.25;35.25;;;;;;;;5031844;28;11503;-69
2023/12/29 11:55:19;;;;;;;;;40.50;34.00;;;;;;;;5032313;28;11519;-68
2023/12/29 11:57:44;;;;;;;;;33.50;29.25;;;;;;;;5032361;28;11638;-68
2023/12/29 12:00:10;;;;;;;;;31.25;30.00;;;;;;;;5031848;28;11532;-68
2023/12/29 12:02:36;;;;;;;;;30.25;28.25;;;;;;;;5032278;28;8801;-70
2023/12/29 12:05:01;;;;;;;;;31.75;29.00;;;;;;;;5030962;28;8816;-69
2023/12/29 12:07:27;;;;;;;;;32.50;32.50;;;;;;;;5030553;28;9592;-68
2023/12/29 12:10:12;;;;;;;;;34.75;33.00;;;;;;;;5030828;28;8796;-68
2023/12/29 12:12:39;;;;;;;;;42.00;37.00;;;;;;;;5028665;28;11557;-68
2023/12/29 12:15:24;;;;;;;;;34.25;33.00;;;;;;;;5031132;28;11570;-69
2023/12/29 12:17:50;;;;;;;;;33.00;33.00;;;;;;;;5031367;28;11550;-68
2023/12/29 12:20:16;;;;;;;;;39.75;35.00;;;;;;;;5032820;28;11586;-68
2023/12/29 12:22:43;;;;;;;;;36.25;35.50;;;;;;;;5048906;28;8820;-67
2023/12/29 12:25:11;;;;;;;;;48.25;41.25;;;;;;;;5050056;28;9538;-71
2023/12/29 12:27:37;;;;;;;;;43.00;37.25;;;;;;;;5052049;28;11520;-70
2023/12/29 12:30:02;;;;;;;;;36.00;34.75;;;;;;;;5051713;28;12338;-70
2023/12/29 12:32:28;;;;;;;;;36.00;31.25;;;;;;;;5048401;28;11534;-68
2023/12/29 12:34:54;;;;;;;;;40.25;35.00;;;;;;;;5051276;28;8809;-69
2023/12/29 12:37:26;;;;;;;;;43.75;38.25;;;;;;;;5051304;28;11573;-69
2023/12/29 12:39:51;;;;;;;;;69.67;56.33;;;;;;;;5050960;28;8832;-69
2023/12/29 12:42:20;;;;;;;;;58.75;48.75;;;;;;;;5049590;28;11531;-69
2023/12/29 12:44:50;;;;;;;;;53.25;44.00;;;;;;;;5022294;28;8815;-69
2023/12/29 12:47:16;;;;;;;;;36.00;36.00;;;;;;;;5031282;28;11558;-69
2023/12/29 12:49:43;;;;;;;;;33.50;30.50;;;;;;;;5031090;28;11738;-70
2023/12/29 12:52:08;;;;;;;;;39.00;36.00;;;;;;;;5031026;28;11633;-72
2023/12/29 12:54:33;;;;;;;;;37.00;35.50;;;;;;;;5031111;28;11553;-72
2023/12/29 12:56:59;;;;;;;;;41.50;36.00;;;;;;;;5031374;28;8824;-70
2023/12/29 12:59:24;;;;;;;;;41.50;35.25;;;;;;;;5030922;28;8818;-71
2023/12/29 13:01:50;;;;;;;;;35.50;35.25;;;;;;;;5029953;28;8796;-71
2023/12/29 13:04:15;;;;;;;;;36.50;34.50;;;;;;;;5031157;28;8811;-72
2023/12/29 13:06:41;;;;;;;;;34.50;33.00;;;;;;;;5030021;28;8812;-66
2023/12/29 13:09:11;;;;;;;;;36.50;35.00;;;;;;;;5027565;28;8815;-69
2023/12/29 13:11:36;;;;;;;;;34.75;31.50;;;;;;;;5012289;28;8833;-69
2023/12/29 13:14:02;;;;;;;;;31.00;23.75;;;;;;;;5024836;28;11632;-69
2023/12/29 13:16:35;;;;;;;;;24.00;24.00;;;;;;;;5029023;28;8815;-70
2023/12/29 13:19:20;;;;;;;;;28.00;25.50;;;;;;;;5020776;28;8841;-69
2023/12/29 13:21:50;;;;;;;;;28.00;22.25;;;;;;;;5022245;28;11504;-67
2023/12/29 13:24:18;;;;;;;;;28.00;26.75;;;;;;;;4970323;28;11572;-68
2023/12/29 13:28:11;;;;;;;;;30.50;28.00;;;;;;;;5085636;27;13471;-70
2023/12/29 13:30:37;;;;;;;;;31.00;27.00;;;;;;;;5087472;28;11579;-70
2023/12/29 13:33:10;;;;;;;;;30.25;28.75;;;;;;;;5087140;28;11630;-69
2023/12/29 13:35:37;;;;;;;;;30.25;26.75;;;;;;;;5087434;28;11513;-68
2023/12/29 13:38:08;;;;;;;;;59.75;47.75;;;;;;;;5080927;28;11622;-68
2023/12/29 13:40:44;;;;;;;;;37.00;34.50;;;;;;;;5069197;28;11656;-69
2023/12/29 13:43:12;;;;;;;;;32.25;30.25;;;;;;;;5073931;28;11706;-69
2023/12/29 13:45:38;;;;;;;;;30.75;27.25;;;;;;;;5087209;28;11635;-69
2023/12/29 13:48:06;;;;;;;;;30.75;28.25;;;;;;;;5088470;28;12527;-69
2023/12/29 13:50:32;;;;;;;;;34.25;26.25;;;;;;;;5085699;28;11526;-69
2023/12/29 13:52:57;;;;;;;;;38.25;33.25;;;;;;;;5086932;28;11503;-68
2023/12/29 13:55:22;;;;;;;;;43.75;35.50;;;;;;;;5086958;28;8787;-70
2023/12/29 13:57:48;;;;;;;;;34.50;34.00;;;;;;;;5088522;28;8814;-69
2023/12/29 14:00:24;;;;;;;;;40.75;38.50;;;;;;;;5086659;28;8790;-70
2023/12/29 14:02:55;;;;;;;;;42.25;38.75;;;;;;;;5086784;28;8798;-71
2023/12/29 14:05:20;;;;;;;;;40.25;36.25;;;;;;;;5088170;28;11515;-69
2023/12/29 14:08:15;;;;;;;;;45.75;37.00;;;;;;;;5086653;28;11553;-69
2023/12/29 14:10:40;;;;;;;;;49.25;40.00;;;;;;;;5074219;28;8803;-69
2023/12/29 14:13:11;;;;;;;;;43.00;38.75;;;;;;;;5076945;28;11628;-69
2023/12/29 14:15:37;;;;;;;;;48.50;40.00;;;;;;;;5086738;28;8799;-70
2023/12/29 14:18:09;;;;;;;;;37.00;34.25;;;;;;;;5084796;28;11554;-69
2023/12/29 14:20:37;;;;;;;;;42.00;36.25;;;;;;;;5086287;28;8916;-70
2023/12/29 14:23:05;;;;;;;;;46.50;40.50;;;;;;;;5086264;28;11499;-70
2023/12/29 14:27:39;;;;;;;;;64.50;50.25;;;;;;;;5068178;28;9517;-69
2023/12/29 14:30:17;;;;;;;;;38.00;35.75;;;;;;;;5044061;28;11568;-69
2023/12/29 14:32:42;;;;;;;;;35.25;30.75;;;;;;;;5046771;28;11546;-68
2023/12/29 14:35:10;;;;;;;;;38.75;33.00;;;;;;;;5047134;28;11590;-70
2023/12/29 14:38:02;;;;;;;;;34.00;32.50;;;;;;;;5097613;27;13497;-71
2023/12/29 14:40:27;;;;;;;;;39.75;37.25;;;;;;;;5094767;28;11530;-70
2023/12/29 14:42:53;;;;;;;;;41.00;35.25;;;;;;;;5087047;28;8887;-69
2023/12/29 14:45:18;;;;;;;;;40.25;37.00;;;;;;;;5087006;28;8841;-69
2023/12/29 14:47:45;;;;;;;;;87.33;68.67;;;;;;;;5086593;28;8833;-69
2023/12/29 14:50:10;;;;;;;;;36.50;33.75;;;;;;;;5086616;28;8779;-69
2023/12/29 14:54:29;;;;;;;;;49.25;36.00;;;;;;;;5103352;27;14342;-70
2023/12/29 14:56:55;;;;;;;;;53.25;42.50;;;;;;;;5109774;28;11556;-69
2023/12/29 14:59:20;;;;;;;;;47.00;38.75;;;;;;;;5107919;28;8954;-69
2023/12/29 15:01:45;;;;;;;;;44.50;39.00;;;;;;;;5107870;28;8780;-69
2023/12/29 15:04:12;;;;;;;;;42.00;37.25;;;;;;;;5100700;28;8852;-69
2023/12/29 15:06:37;;;;;;;;;41.50;36.75;;;;;;;;5109473;28;8818;-70
2023/12/29 15:09:03;;;;;;;;;39.50;36.25;;;;;;;;5107458;28;11510;-68
2023/12/29 15:11:28;;;;;;;;;47.25;36.50;;;;;;;;5107653;28;8772;-69
2023/12/29 15:13:54;;;;;;;;;38.25;35.00;;;;;;;;5107737;28;9612;-68
2023/12/29 15:16:19;;;;;;;;;27.00;24.00;;;;;;;;5107832;28;8784;-71
2023/12/29 15:19:26;;;;;;;;;37.75;35.00;;;;;;;;5104758;27;13470;-70
2023/12/29 15:21:53;;;;;;;;;35.25;32.25;;;;;;;;5107730;28;12246;-69
2023/12/29 15:24:21;;;;;;;;;33.00;32.75;;;;;;;;5108095;28;8905;-71
2023/12/29 15:26:46;;;;;;;;;29.00;28.00;;;;;;;;5109465;28;11478;-71
2023/12/29 15:29:11;;;;;;;;;33.25;32.50;;;;;;;;5108769;28;12231;-70
2023/12/29 15:31:36;;;;;;;;;32.25;28.75;;;;;;;;5107287;28;8780;-68
2023/12/29 15:34:02;;;;;;;;;30.50;29.00;;;;;;;;5105090;28;8883;-69
2023/12/29 15:36:27;;;;;;;;;28.25;26.00;;;;;;;;5107185;28;8803;-69
2023/12/29 15:38:52;;;;;;;;;30.50;26.00;;;;;;;;5107481;28;8804;-68
2023/12/29 15:41:18;;;;;;;;;28.75;27.50;;;;;;;;5107710;28;8780;-68
2023/12/29 15:43:44;;;;;;;;;31.50;28.50;;;;;;;;5119450;27;9608;-68
2023/12/29 15:46:16;;;;;;;;;29.00;27.25;;;;;;;;5128093;27;8833;-68
2023/12/29 15:48:41;;;;;;;;;30.75;30.00;;;;;;;;5128157;27;8923;-68
2023/12/29 15:51:07;;;;;;;;;38.50;29.75;;;;;;;;5126673;27;11438;-68
2023/12/29 15:53:32;;;;;;;;;34.50;28.50;;;;;;;;5128061;27;8834;-68
2023/12/29 15:55:58;;;;;;;;;29.25;26.25;;;;;;;;5127930;27;9523;-68
2023/12/29 15:58:24;;;;;;;;;27.25;23.25;;;;;;;;5128537;27;8837;-68
2023/12/29 16:00:49;;;;;;;;;25.50;24.25;;;;;;;;5128058;27;11402;-68
2023/12/29 16:03:14;;;;;;;;;24.75;21.25;;;;;;;;5126994;27;8777;-68
2023/12/29 16:05:40;;;;;;;;;25.00;23.25;;;;;;;;5105547;27;9568;-68
2023/12/29 16:08:05;;;;;;;;;28.25;25.75;;;;;;;;5091057;28;8791;-68
2023/12/29 16:10:30;;;;;;;;;33.25;28.75;;;;;;;;5102401;28;8838;-68
2023/12/29 16:12:55;;;;;;;;;24.00;22.25;;;;;;;;5105604;28;8881;-68
2023/12/29 16:15:21;;;;;;;;;28.50;28.50;;;;;;;;5106966;28;8776;-68
2023/12/29 16:17:46;;;;;;;;;35.50;27.25;;;;;;;;5106827;28;8916;-68
2023/12/29 16:20:11;;;;;;;;;26.25;24.50;;;;;;;;5106750;28;9610;-68
2023/12/29 16:22:36;;;;;;;;;31.00;25.00;;;;;;;;5106884;28;8826;-69
2023/12/29 16:25:03;;;;;;;;;23.75;21.25;;;;;;;;5106564;28;8814;-71
2023/12/29 16:27:28;;;;;;;;;26.50;23.50;;;;;;;;5106732;28;8826;-71
2023/12/29 16:29:53;;;;;;;;;23.50;20.50;;;;;;;;5098265;28;11507;-69
